• Join FlightAware (Why Join?)
  • Login
  • US Flag 
11:45PM EDT


 

Airport Tracker/Info


-or-


 

Live Flight TrackerFlight Track Log ✈ DAL2104 ✈ 12-May-2013 ✈ KATL - KMSN

Flight Track Log - Related Links

Times and Time Zones

All times are in EDT time to prevent confusion due to time zone crossing. See the DAL2104 flight status page for this flight to view local times or setup timezone preferences in your user account.

Time Position Orientation Groundspeed Altitude Reporting Facility
EDT Latitude Longitude Course Direction KTS MPH feet Rate Location/Type
07:56PM 33.6500 -84.4667 320° Northwest 149 171 2,700  Level Atlanta TRACON
07:57PM 33.6667 -84.5167 292° West 221 254 4,500 2,700 Climbing Atlanta TRACON
07:58PM 33.8112 -84.1667 North  Level FlightAware Approximate
07:58PM 33.7167 -84.5833 312° West 272 313 8,100  Level Atlanta TRACON
07:59PM 33.9040 -84.2373 320° Northwest  Level FlightAware Approximate
08:00PM 33.9918 -84.3250 320° Northwest  Level FlightAware Approximate
08:00PM 33.8892 -84.5844 360° North 288 331 11,700  Level Atlanta Center
08:01PM 34.0795 -84.4128 320° Northwest  Level FlightAware Approximate
08:01PM 33.9808 -84.5850 360° North 334 384 13,900  Level Atlanta Center
08:02PM 34.0956 -84.5881 359° North 351 404 16,800 2,520 Climbing Atlanta Center
08:03PM 34.1958 -84.5914 358° North 383 441 19,000 2,160 Climbing Atlanta Center
08:04PM 34.3086 -84.6022 355° North 403 464 21,200 2,100 Climbing Atlanta Center
08:05PM 34.4211 -84.6281 349° North 408 470 23,200 1,980 Climbing Atlanta Center
08:06PM 34.5358 -84.6567 348° North 417 480 25,200 1,800 Climbing Atlanta Center
08:07PM 34.6525 -84.6828 350° North 417 480 26,800 1,380 Climbing Atlanta Center
08:08PM 34.7794 -84.7192 347° North 417 480 28,000 1,560 Climbing Atlanta Center
08:09PM 34.8983 -84.7478 349° North 425 489 30,000 1,680 Climbing Atlanta Center
08:10PM 35.0150 -84.7767 349° North 425 489 31,400 1,380 Climbing Atlanta Center
08:11PM 35.1317 -84.8058 348° North 431 496 32,800 1,260 Climbing Atlanta Center
08:12PM 35.2483 -84.8347 349° North 426 490 34,000 1,380 Climbing Atlanta Center
08:13PM 35.3672 -84.8639 349° North 426 490 35,600 960 Climbing Atlanta Center
08:14PM 35.4794 -84.8931 348° North 426 490 36,000 180 Climbing Atlanta Center
08:15PM 35.5961 -84.9225 348° North 426 490 36,000  Level Atlanta Center
08:16PM 35.7086 -84.9517 348° North 426 490 36,000  Level Atlanta Center
08:17PM 35.8253 -84.9811 348° North 420 483 36,000  Level Atlanta Center
08:20PM 36.0867 -85.0461 349° North 423 487 36,000  Level Indianapolis Center
08:21PM 36.2031 -85.0761 348° North 426 490 36,000  Level Indianapolis Center
08:22PM 36.3197 -85.1069 348° North 426 490 36,100  Climbing Indianapolis Center
08:23PM 36.4603 -85.1422 349° North 429 494 36,000 -60 Descending Indianapolis Center
08:24PM 36.5758 -85.1722 348° North 426 490 36,000  Level Indianapolis Center
08:25PM 36.6892 -85.2014 348° North 419 482 36,000  Level Indianapolis Center
08:26PM 36.8022 -85.2311 348° North 415 478 36,000 -60 Level Indianapolis Center
08:27PM 36.9175 -85.2611 348° North 421 484 35,900  Descending Indianapolis Center
08:28PM 37.0325 -85.2914 348° North 422 486 36,000  Climbing Indianapolis Center
08:29PM 37.1625 -85.3350 345° North 421 484 36,000  Level Indianapolis Center
08:30PM 37.2703 -85.3875 339° North 415 478 36,000  Level Indianapolis Center
08:31PM 37.3781 -85.4400 339° North 415 478 36,000  Level Indianapolis Center
08:32PM 37.4892 -85.4933 339° North 423 487 36,000  Level Indianapolis Center
08:33PM 37.5939 -85.5453 339° North 437 503 36,000  Level Indianapolis Center
08:34PM 37.7067 -85.6006 339° North 435 501 36,000  Level Indianapolis Center
08:35PM 37.8394 -85.6661 339° North 428 493 36,000  Level Indianapolis Center
08:36PM 37.9511 -85.7236 338° Northwest 431 496 36,000  Level Indianapolis Center
08:37PM 38.0625 -85.7778 339° North 430 495 36,000  Level Indianapolis Center
08:38PM 38.1739 -85.8331 339° North 429 494 36,000  Level Indianapolis Center
08:39PM 38.2842 -85.8881 339° North 427 491 36,000  Level Indianapolis Center
08:40PM 38.3953 -85.9444 338° Northwest 430 495 36,000  Level Indianapolis Center
08:41PM 38.5047 -86.0003 338° Northwest 425 489 36,000  Level Indianapolis Center
08:42PM 38.6142 -86.0547 339° North 423 487 36,000  Level Indianapolis Center
08:43PM 38.7242 -86.1106 338° Northwest 424 488 36,000  Level Indianapolis Center
08:44PM 38.8542 -86.1778 338° Northwest 421 484 36,000  Level Indianapolis Center
08:45PM 38.9628 -86.2133 346° North 431 496 36,000  Level Indianapolis Center
08:46PM 39.0794 -86.2417 349° North 429 494 36,000  Level Indianapolis Center
08:47PM 39.1931 -86.2847 344° North 426 490 36,000  Level Indianapolis Center
08:48PM 39.3064 -86.3267 344° North 424 488 36,000  Level Indianapolis Center
08:49PM 39.4192 -86.3706 343° North 423 487 36,000  Level Indianapolis Center
08:50PM 39.5553 -86.4222 344° North 423 487 36,000  Level Indianapolis Center
08:51PM 39.6694 -86.4678 343° North 422 486 36,000  Level Indianapolis Center
08:52PM 39.7906 -86.4936 351° North 433 498 36,000  Level Indianapolis Center
08:53PM 39.9117 -86.5128 353° North 434 499 36,000  Level Indianapolis Center
08:55PM 40.0317 -86.5336 352° North 433 498 36,000  Level Indianapolis Center
08:55PM 40.1281 -86.5497 353° North 435 501 36,000  Level Chicago Center
08:56PM 40.2494 -86.5694 353° North 438 504 36,000 -300 Level Chicago Center
08:58PM 40.3892 -86.6072 348° North 433 498 35,500 -540 Descending Chicago Center
08:59PM 40.4881 -86.6817 330° Northwest 416 479 35,000 -300 Descending Chicago Center
09:00PM 40.5906 -86.7528 332° Northwest 418 481 35,000 -360 Level Chicago Center
09:01PM 40.6919 -86.8253 332° Northwest 418 481 34,300 -540 Descending Chicago Center
09:02PM 40.7950 -86.8983 332° Northwest 408 470 34,000 -180 Descending Chicago Center
09:03PM 40.8939 -86.9689 332° Northwest 406 467 34,000  Level Chicago Center
09:04PM 41.0119 -87.0556 331° Northwest 408 470 34,000  Level Chicago Center
09:05PM 41.1122 -87.1281 331° Northwest 411 473 34,000  Level Chicago Center
09:06PM 41.2111 -87.2000 331° Northwest 409 471 34,000  Level Chicago Center
09:07PM 41.3078 -87.2728 331° Northwest 405 466 34,000  Level Chicago Center
09:08PM 41.4072 -87.3447 332° Northwest 408 470 34,000 -600 Level Chicago Center
09:09PM 41.5239 -87.4314 331° Northwest 404 465 32,800 -1,020 Descending Chicago Center
09:10PM 41.6158 -87.5103 327° Northwest 401 461 32,000 -420 Descending Chicago Center
09:11PM 41.6986 -87.6067 319° Northwest 400 460 32,000  Level Chicago Center
09:12PM 41.7817 -87.7019 319° Northwest 400 460 32,000  Level Chicago Center
09:13PM 41.8811 -87.8183 319° Northwest 400 460 32,000 -360 Level Chicago Center
09:14PM 41.9647 -87.9158 319° Northwest 402 463 31,300 -840 Descending Chicago Center
09:15PM 42.0458 -88.0108 319° Northwest 393 452 30,300 -1,380 Descending Chicago Center
09:16PM 42.1261 -88.1069 318° Northwest 389 448 28,500 -2,520 Descending Chicago Center
09:17PM 42.2064 -88.2022 319° Northwest 388 447 25,100 -2,400 Descending Chicago Center
09:18PM 42.2981 -88.3108 319° Northwest 371 427 23,600 -2,340 Descending Chicago Center
09:19PM 42.3758 -88.4033 319° Northwest 361 415 20,300 -3,000 Descending Chicago Center
09:20PM 42.4489 -88.4919 318° Northwest 354 407 17,500 -2,940 Descending Chicago Center
09:21PM 42.5197 -88.5781 318° Northwest 342 394 14,300 -2,880 Descending Chicago Center
09:22PM 42.5894 -88.6617 319° Northwest 334 384 11,700 -1,620 Descending Chicago Center
09:23PM 42.6542 -88.7392 319° Northwest 312 359 11,100 -300 Descending Chicago Center
09:24PM 42.7172 -88.8158 318° Northwest 305 351 11,100 -60 Level Chicago Center
09:25PM 42.7808 -88.8933 318° Northwest 305 351 11,000 -840 Descending Chicago Center
09:26PM 42.8444 -88.9700 319° Northwest 258 297 9,400 -960 Descending Chicago Center
09:27PM 42.8944 -89.0328 317° Northwest 244 281 9,100 -660 Descending Chicago Center
09:28PM 42.9244 -89.1133 297° West 241 277 8,100 -1,860 Descending Chicago Center
09:30PM 42.9442 -89.2047 286° West 249 287 5,300 -1,920 Descending Chicago Center
09:31PM 42.9756 -89.2689 304° West 227 261 4,200 -1,020 Descending Chicago Center
09:32PM 43.0128 -89.3158 317° Northwest 197 227 3,300 -900 Descending Chicago Center